Munday, Texas
Current Conditions -  °F | °C
As of 8:15 AM on Thursday 29 Jan 2015 (Local Time) from KF05 Reporting Station
Clear Clear  
Wind Chill: 45°   Ceiling: Unl
Heat Index: 49°   Visibility: 10mi
Dew Point: 32°   Wind: 8mph
Humidity: 52%   Direction: 340°NNW
Pressure: 30.34"   Gusts: NA
Location:  33.45°N, 99.62°W
Report Text: KF05 291415Z AUTO 34007KT 10SM CLR 09/00 A3034 RMK AO1 T00930000
Loading
Personal Weather Stations






























Interactive Weather Map New forecast layout! Learn more

10-Day Weather Forecast

Advertisements
Track Severe Weather on mobile